sensor_id;sensor_type;location;lat;lon;timestamp;P1;durP1;ratioP1;P2;durP2;ratioP2
11777;SDS011;5946;51.770;8.548;2023-04-02T00:01:24;9.73;;;7.80;;
11777;SDS011;5946;51.770;8.548;2023-04-02T00:11:30;8.20;;;7.30;;
11777;SDS011;5946;51.770;8.548;2023-04-02T00:13:59;8.63;;;7.47;;
11777;SDS011;5946;51.770;8.548;2023-04-02T00:16:26;8.87;;;7.60;;
11777;SDS011;5946;51.770;8.548;2023-04-02T00:18:53;10.47;;;7.67;;
11777;SDS011;5946;51.770;8.548;2023-04-02T00:23:55;8.40;;;7.03;;
11777;SDS011;5946;51.770;8.548;2023-04-02T00:28:50;9.50;;;8.30;;
11777;SDS011;5946;51.770;8.548;2023-04-02T00:31:17;11.03;;;8.30;;
11777;SDS011;5946;51.770;8.548;2023-04-02T00:33:44;11.80;;;8.93;;
11777;SDS011;5946;51.770;8.548;2023-04-02T00:36:10;10.73;;;9.33;;
11777;SDS011;5946;51.770;8.548;2023-04-02T00:38:36;11.53;;;9.80;;
11777;SDS011;5946;51.770;8.548;2023-04-02T00:41:05;12.60;;;9.87;;
11777;SDS011;5946;51.770;8.548;2023-04-02T00:43:34;15.13;;;10.27;;
11777;SDS011;5946;51.770;8.548;2023-04-02T00:46:02;22.87;;;10.47;;
11777;SDS011;5946;51.770;8.548;2023-04-02T00:50:59;12.97;;;10.07;;
11777;SDS011;5946;51.770;8.548;2023-04-02T00:53:26;11.90;;;9.80;;
11777;SDS011;5946;51.770;8.548;2023-04-02T00:55:53;13.87;;;9.97;;
11777;SDS011;5946;51.770;8.548;2023-04-02T00:58:27;11.67;;;9.83;;
11777;SDS011;5946;51.770;8.548;2023-04-02T01:00:54;12.20;;;9.17;;
11777;SDS011;5946;51.770;8.548;2023-04-02T01:05:48;13.70;;;11.87;;
11777;SDS011;5946;51.770;8.548;2023-04-02T01:08:15;17.63;;;12.03;;
11777;SDS011;5946;51.770;8.548;2023-04-02T01:13:43;12.87;;;11.40;;
11777;SDS011;5946;51.770;8.548;2023-04-02T01:16:17;16.83;;;11.87;;
11777;SDS011;5946;51.770;8.548;2023-04-02T01:18:51;15.17;;;11.90;;
11777;SDS011;5946;51.770;8.548;2023-04-02T01:24:08;12.80;;;11.27;;
11777;SDS011;5946;51.770;8.548;2023-04-02T01:26:47;15.53;;;11.93;;
11777;SDS011;5946;51.770;8.548;2023-04-02T01:29:19;13.17;;;11.57;;
11777;SDS011;5946;51.770;8.548;2023-04-02T01:31:46;13.43;;;11.07;;
11777;SDS011;5946;51.770;8.548;2023-04-02T01:34:16;14.23;;;11.67;;
11777;SDS011;5946;51.770;8.548;2023-04-02T01:36:47;14.07;;;12.27;;
11777;SDS011;5946;51.770;8.548;2023-04-02T01:39:26;18.43;;;12.77;;
11777;SDS011;5946;51.770;8.548;2023-04-02T01:44:34;17.77;;;12.77;;
11777;SDS011;5946;51.770;8.548;2023-04-02T01:47:02;15.63;;;12.53;;
11777;SDS011;5946;51.770;8.548;2023-04-02T01:49:32;15.73;;;12.60;;
11777;SDS011;5946;51.770;8.548;2023-04-02T01:51:58;16.37;;;12.40;;
11777;SDS011;5946;51.770;8.548;2023-04-02T01:54:24;17.87;;;13.37;;
11777;SDS011;5946;51.770;8.548;2023-04-02T01:56:52;15.33;;;12.67;;
11777;SDS011;5946;51.770;8.548;2023-04-02T01:59:19;17.17;;;13.17;;
11777;SDS011;5946;51.770;8.548;2023-04-02T02:02:02;17.37;;;12.90;;
11777;SDS011;5946;51.770;8.548;2023-04-02T02:04:29;17.43;;;12.67;;
11777;SDS011;5946;51.770;8.548;2023-04-02T02:06:56;15.10;;;12.37;;
11777;SDS011;5946;51.770;8.548;2023-04-02T02:09:24;16.97;;;13.10;;
11777;SDS011;5946;51.770;8.548;2023-04-02T02:11:51;17.97;;;12.80;;
11777;SDS011;5946;51.770;8.548;2023-04-02T02:16:44;17.50;;;12.43;;
11777;SDS011;5946;51.770;8.548;2023-04-02T02:21:50;19.43;;;12.93;;
11777;SDS011;5946;51.770;8.548;2023-04-02T02:24:21;21.83;;;12.63;;
11777;SDS011;5946;51.770;8.548;2023-04-02T02:26:49;23.13;;;14.27;;
11777;SDS011;5946;51.770;8.548;2023-04-02T02:29:16;19.70;;;14.10;;
11777;SDS011;5946;51.770;8.548;2023-04-02T02:31:43;24.67;;;14.23;;
11777;SDS011;5946;51.770;8.548;2023-04-02T02:34:14;23.80;;;14.57;;
11777;SDS011;5946;51.770;8.548;2023-04-02T02:36:45;24.57;;;15.27;;
11777;SDS011;5946;51.770;8.548;2023-04-02T02:39:15;25.70;;;15.13;;
11777;SDS011;5946;51.770;8.548;2023-04-02T02:41:49;25.60;;;15.60;;
11777;SDS011;5946;51.770;8.548;2023-04-02T02:44:20;21.23;;;14.73;;
11777;SDS011;5946;51.770;8.548;2023-04-02T02:46:52;27.67;;;14.87;;
11777;SDS011;5946;51.770;8.548;2023-04-02T02:49:21;32.60;;;16.00;;
11777;SDS011;5946;51.770;8.548;2023-04-02T02:51:51;22.97;;;14.57;;
11777;SDS011;5946;51.770;8.548;2023-04-02T02:54:18;22.73;;;14.93;;
11777;SDS011;5946;51.770;8.548;2023-04-02T02:56:45;27.53;;;15.07;;
11777;SDS011;5946;51.770;8.548;2023-04-02T02:59:13;21.93;;;15.27;;
11777;SDS011;5946;51.770;8.548;2023-04-02T03:01:40;23.07;;;15.07;;
11777;SDS011;5946;51.770;8.548;2023-04-02T03:04:06;27.10;;;16.13;;
11777;SDS011;5946;51.770;8.548;2023-04-02T03:06:32;26.80;;;15.60;;
11777;SDS011;5946;51.770;8.548;2023-04-02T03:09:02;26.23;;;15.67;;
11777;SDS011;5946;51.770;8.548;2023-04-02T03:11:33;24.17;;;14.50;;
11777;SDS011;5946;51.770;8.548;2023-04-02T03:14:11;26.67;;;16.13;;
11777;SDS011;5946;51.770;8.548;2023-04-02T03:16:41;23.10;;;14.93;;
11777;SDS011;5946;51.770;8.548;2023-04-02T03:21:51;28.73;;;15.87;;
11777;SDS011;5946;51.770;8.548;2023-04-02T03:24:37;26.63;;;15.03;;
11777;SDS011;5946;51.770;8.548;2023-04-02T03:29:33;24.53;;;14.07;;
11777;SDS011;5946;51.770;8.548;2023-04-02T03:34:41;25.07;;;15.30;;
11777;SDS011;5946;51.770;8.548;2023-04-02T03:37:13;24.67;;;14.07;;
11777;SDS011;5946;51.770;8.548;2023-04-02T03:44:52;25.43;;;15.97;;
11777;SDS011;5946;51.770;8.548;2023-04-02T03:47:39;29.30;;;15.93;;
11777;SDS011;5946;51.770;8.548;2023-04-02T03:52:36;27.63;;;16.30;;
11777;SDS011;5946;51.770;8.548;2023-04-02T04:03:17;29.10;;;16.43;;
11777;SDS011;5946;51.770;8.548;2023-04-02T04:05:49;25.70;;;16.20;;
11777;SDS011;5946;51.770;8.548;2023-04-02T04:08:17;26.83;;;14.93;;
11777;SDS011;5946;51.770;8.548;2023-04-02T04:10:43;28.83;;;14.53;;
11777;SDS011;5946;51.770;8.548;2023-04-02T04:13:14;26.30;;;15.17;;
11777;SDS011;5946;51.770;8.548;2023-04-02T04:15:41;29.70;;;15.50;;
11777;SDS011;5946;51.770;8.548;2023-04-02T04:20:55;29.17;;;15.30;;
11777;SDS011;5946;51.770;8.548;2023-04-02T04:23:31;28.53;;;15.73;;
11777;SDS011;5946;51.770;8.548;2023-04-02T04:26:01;27.63;;;16.00;;
11777;SDS011;5946;51.770;8.548;2023-04-02T04:28:42;25.80;;;15.47;;
11777;SDS011;5946;51.770;8.548;2023-04-02T04:31:13;29.47;;;15.53;;
11777;SDS011;5946;51.770;8.548;2023-04-02T04:33:43;21.47;;;13.83;;
11777;SDS011;5946;51.770;8.548;2023-04-02T04:36:15;25.60;;;14.10;;
11777;SDS011;5946;51.770;8.548;2023-04-02T04:38:44;26.77;;;14.17;;
11777;SDS011;5946;51.770;8.548;2023-04-02T04:41:14;21.00;;;13.77;;
11777;SDS011;5946;51.770;8.548;2023-04-02T04:43:43;24.20;;;13.63;;
11777;SDS011;5946;51.770;8.548;2023-04-02T04:46:17;23.83;;;13.40;;
11777;SDS011;5946;51.770;8.548;2023-04-02T04:48:55;27.27;;;12.87;;
11777;SDS011;5946;51.770;8.548;2023-04-02T04:51:29;22.00;;;12.60;;
11777;SDS011;5946;51.770;8.548;2023-04-02T04:53:58;24.80;;;12.50;;
11777;SDS011;5946;51.770;8.548;2023-04-02T04:56:25;21.53;;;12.57;;
11777;SDS011;5946;51.770;8.548;2023-04-02T04:58:54;22.90;;;12.20;;
11777;SDS011;5946;51.770;8.548;2023-04-02T05:01:26;20.07;;;11.67;;
11777;SDS011;5946;51.770;8.548;2023-04-02T05:03:58;20.77;;;11.47;;
11777;SDS011;5946;51.770;8.548;2023-04-02T05:06:33;21.73;;;11.80;;
11777;SDS011;5946;51.770;8.548;2023-04-02T05:09:02;19.60;;;11.00;;
11777;SDS011;5946;51.770;8.548;2023-04-02T05:11:33;20.17;;;11.43;;
11777;SDS011;5946;51.770;8.548;2023-04-02T05:14:05;18.83;;;10.40;;
11777;SDS011;5946;51.770;8.548;2023-04-02T05:16:38;16.73;;;10.27;;
11777;SDS011;5946;51.770;8.548;2023-04-02T05:19:07;18.23;;;10.43;;
11777;SDS011;5946;51.770;8.548;2023-04-02T05:21:37;16.23;;;10.10;;
11777;SDS011;5946;51.770;8.548;2023-04-02T05:24:31;14.67;;;9.10;;
11777;SDS011;5946;51.770;8.548;2023-04-02T05:26:59;18.27;;;9.73;;
11777;SDS011;5946;51.770;8.548;2023-04-02T05:29:28;12.13;;;9.13;;
11777;SDS011;5946;51.770;8.548;2023-04-02T05:32:00;22.80;;;9.77;;
11777;SDS011;5946;51.770;8.548;2023-04-02T05:34:29;15.37;;;9.23;;
11777;SDS011;5946;51.770;8.548;2023-04-02T05:36:57;14.50;;;9.00;;
11777;SDS011;5946;51.770;8.548;2023-04-02T05:39:23;19.33;;;9.40;;
11777;SDS011;5946;51.770;8.548;2023-04-02T05:42:00;14.23;;;9.00;;
11777;SDS011;5946;51.770;8.548;2023-04-02T05:44:28;15.33;;;9.67;;
11777;SDS011;5946;51.770;8.548;2023-04-02T05:46:56;13.57;;;8.80;;
11777;SDS011;5946;51.770;8.548;2023-04-02T05:51:58;16.67;;;9.07;;
11777;SDS011;5946;51.770;8.548;2023-04-02T05:54:30;16.10;;;8.67;;
11777;SDS011;5946;51.770;8.548;2023-04-02T05:57:02;16.27;;;8.37;;
11777;SDS011;5946;51.770;8.548;2023-04-02T05:59:30;12.43;;;8.30;;
11777;SDS011;5946;51.770;8.548;2023-04-02T06:02:04;13.77;;;9.27;;
11777;SDS011;5946;51.770;8.548;2023-04-02T06:04:35;10.73;;;8.30;;
11777;SDS011;5946;51.770;8.548;2023-04-02T06:09:39;14.23;;;8.13;;
11777;SDS011;5946;51.770;8.548;2023-04-02T06:14:34;11.57;;;7.80;;
11777;SDS011;5946;51.770;8.548;2023-04-02T06:17:01;12.33;;;7.13;;
11777;SDS011;5946;51.770;8.548;2023-04-02T06:19:30;10.13;;;7.20;;
11777;SDS011;5946;51.770;8.548;2023-04-02T06:21:57;9.73;;;7.03;;
11777;SDS011;5946;51.770;8.548;2023-04-02T06:24:24;8.57;;;6.43;;
11777;SDS011;5946;51.770;8.548;2023-04-02T06:26:53;8.43;;;6.27;;
11777;SDS011;5946;51.770;8.548;2023-04-02T06:29:34;11.37;;;6.60;;
11777;SDS011;5946;51.770;8.548;2023-04-02T06:32:05;8.57;;;5.63;;
11777;SDS011;5946;51.770;8.548;2023-04-02T06:34:31;9.20;;;6.33;;
11777;SDS011;5946;51.770;8.548;2023-04-02T06:36:58;9.77;;;5.20;;
11777;SDS011;5946;51.770;8.548;2023-04-02T06:39:25;6.27;;;4.63;;
11777;SDS011;5946;51.770;8.548;2023-04-02T06:41:53;10.53;;;4.87;;
11777;SDS011;5946;51.770;8.548;2023-04-02T06:44:21;11.93;;;5.47;;
11777;SDS011;5946;51.770;8.548;2023-04-02T06:46:51;6.70;;;4.57;;
11777;SDS011;5946;51.770;8.548;2023-04-02T06:49:20;7.23;;;4.63;;
11777;SDS011;5946;51.770;8.548;2023-04-02T06:51:48;6.30;;;4.10;;
11777;SDS011;5946;51.770;8.548;2023-04-02T06:54:16;8.60;;;4.10;;
11777;SDS011;5946;51.770;8.548;2023-04-02T06:56:46;5.33;;;4.20;;
11777;SDS011;5946;51.770;8.548;2023-04-02T06:59:13;8.07;;;4.23;;
11777;SDS011;5946;51.770;8.548;2023-04-02T07:04:08;11.70;;;5.33;;
11777;SDS011;5946;51.770;8.548;2023-04-02T07:06:35;8.77;;;5.17;;
11777;SDS011;5946;51.770;8.548;2023-04-02T07:09:01;7.50;;;5.20;;
11777;SDS011;5946;51.770;8.548;2023-04-02T07:11:27;8.30;;;4.53;;
11777;SDS011;5946;51.770;8.548;2023-04-02T07:13:53;6.73;;;4.13;;
11777;SDS011;5946;51.770;8.548;2023-04-02T07:16:21;6.40;;;3.70;;
11777;SDS011;5946;51.770;8.548;2023-04-02T07:18:49;5.97;;;3.97;;
11777;SDS011;5946;51.770;8.548;2023-04-02T07:21:15;6.13;;;4.10;;
11777;SDS011;5946;51.770;8.548;2023-04-02T07:23:41;8.60;;;3.63;;
11777;SDS011;5946;51.770;8.548;2023-04-02T07:26:07;7.60;;;4.17;;
11777;SDS011;5946;51.770;8.548;2023-04-02T07:28:33;5.77;;;4.10;;
11777;SDS011;5946;51.770;8.548;2023-04-02T07:31:00;6.90;;;4.43;;
11777;SDS011;5946;51.770;8.548;2023-04-02T07:33:26;6.30;;;3.93;;
11777;SDS011;5946;51.770;8.548;2023-04-02T07:35:53;5.80;;;3.67;;
11777;SDS011;5946;51.770;8.548;2023-04-02T07:38:20;7.00;;;3.90;;
11777;SDS011;5946;51.770;8.548;2023-04-02T07:40:46;6.47;;;3.57;;
11777;SDS011;5946;51.770;8.548;2023-04-02T07:43:12;7.07;;;3.33;;
11777;SDS011;5946;51.770;8.548;2023-04-02T07:45:38;6.60;;;3.50;;
11777;SDS011;5946;51.770;8.548;2023-04-02T07:48:07;5.03;;;3.17;;
11777;SDS011;5946;51.770;8.548;2023-04-02T07:50:34;5.73;;;3.37;;
11777;SDS011;5946;51.770;8.548;2023-04-02T07:53:00;4.80;;;3.07;;
11777;SDS011;5946;51.770;8.548;2023-04-02T07:55:26;4.77;;;3.03;;
11777;SDS011;5946;51.770;8.548;2023-04-02T07:57:53;4.07;;;3.00;;
11777;SDS011;5946;51.770;8.548;2023-04-02T08:00:20;6.43;;;3.40;;
11777;SDS011;5946;51.770;8.548;2023-04-02T08:02:46;6.87;;;3.20;;
11777;SDS011;5946;51.770;8.548;2023-04-02T08:05:13;3.77;;;2.50;;
11777;SDS011;5946;51.770;8.548;2023-04-02T08:07:40;4.03;;;2.80;;
11777;SDS011;5946;51.770;8.548;2023-04-02T08:10:06;4.00;;;2.60;;
11777;SDS011;5946;51.770;8.548;2023-04-02T08:12:32;5.70;;;2.93;;
11777;SDS011;5946;51.770;8.548;2023-04-02T08:14:58;4.83;;;3.40;;
11777;SDS011;5946;51.770;8.548;2023-04-02T08:17:25;9.17;;;3.23;;
11777;SDS011;5946;51.770;8.548;2023-04-02T08:19:55;7.27;;;3.40;;
11777;SDS011;5946;51.770;8.548;2023-04-02T08:22:24;7.57;;;3.73;;
11777;SDS011;5946;51.770;8.548;2023-04-02T08:24:51;4.23;;;2.40;;
11777;SDS011;5946;51.770;8.548;2023-04-02T08:27:17;3.33;;;2.50;;
11777;SDS011;5946;51.770;8.548;2023-04-02T08:29:43;5.13;;;2.47;;
11777;SDS011;5946;51.770;8.548;2023-04-02T08:32:10;4.60;;;2.40;;
11777;SDS011;5946;51.770;8.548;2023-04-02T08:34:37;4.10;;;2.30;;
11777;SDS011;5946;51.770;8.548;2023-04-02T08:37:03;4.93;;;2.17;;
11777;SDS011;5946;51.770;8.548;2023-04-02T08:39:29;5.50;;;2.53;;
11777;SDS011;5946;51.770;8.548;2023-04-02T08:42:14;4.97;;;2.83;;
11777;SDS011;5946;51.770;8.548;2023-04-02T08:47:31;4.20;;;2.20;;
11777;SDS011;5946;51.770;8.548;2023-04-02T08:50:02;6.70;;;2.37;;
11777;SDS011;5946;51.770;8.548;2023-04-02T08:52:32;4.63;;;2.30;;
11777;SDS011;5946;51.770;8.548;2023-04-02T08:55:04;5.40;;;2.70;;
11777;SDS011;5946;51.770;8.548;2023-04-02T09:00:35;5.07;;;2.53;;
11777;SDS011;5946;51.770;8.548;2023-04-02T09:03:13;2.77;;;2.13;;
11777;SDS011;5946;51.770;8.548;2023-04-02T09:05:41;2.80;;;2.03;;
11777;SDS011;5946;51.770;8.548;2023-04-02T09:08:13;3.57;;;2.20;;
11777;SDS011;5946;51.770;8.548;2023-04-02T09:10:41;5.30;;;2.30;;
11777;SDS011;5946;51.770;8.548;2023-04-02T09:13:15;3.47;;;1.97;;
11777;SDS011;5946;51.770;8.548;2023-04-02T09:15:42;6.83;;;2.60;;
11777;SDS011;5946;51.770;8.548;2023-04-02T09:18:16;4.17;;;2.50;;
11777;SDS011;5946;51.770;8.548;2023-04-02T09:20:42;3.83;;;2.03;;
11777;SDS011;5946;51.770;8.548;2023-04-02T09:23:13;3.37;;;2.00;;
11777;SDS011;5946;51.770;8.548;2023-04-02T09:25:46;6.00;;;2.30;;
11777;SDS011;5946;51.770;8.548;2023-04-02T09:28:12;3.83;;;2.10;;
11777;SDS011;5946;51.770;8.548;2023-04-02T09:30:41;4.17;;;2.20;;
11777;SDS011;5946;51.770;8.548;2023-04-02T09:33:14;4.43;;;2.30;;
11777;SDS011;5946;51.770;8.548;2023-04-02T09:38:19;3.17;;;2.20;;
11777;SDS011;5946;51.770;8.548;2023-04-02T09:40:59;4.10;;;2.20;;
11777;SDS011;5946;51.770;8.548;2023-04-02T09:43:27;2.87;;;1.60;;
11777;SDS011;5946;51.770;8.548;2023-04-02T09:45:55;3.87;;;2.00;;
11777;SDS011;5946;51.770;8.548;2023-04-02T09:48:26;4.53;;;2.23;;
11777;SDS011;5946;51.770;8.548;2023-04-02T09:51:18;4.27;;;2.23;;
11777;SDS011;5946;51.770;8.548;2023-04-02T09:54:29;3.67;;;1.97;;
11777;SDS011;5946;51.770;8.548;2023-04-02T09:56:34;4.50;;;2.43;;
11777;SDS011;5946;51.770;8.548;2023-04-02T09:59:10;4.40;;;2.10;;
11777;SDS011;5946;51.770;8.548;2023-04-02T10:04:15;2.80;;;1.90;;
11777;SDS011;5946;51.770;8.548;2023-04-02T10:06:51;3.63;;;1.80;;
11777;SDS011;5946;51.770;8.548;2023-04-02T10:09:27;4.40;;;2.10;;
11777;SDS011;5946;51.770;8.548;2023-04-02T10:11:54;7.07;;;2.20;;
11777;SDS011;5946;51.770;8.548;2023-04-02T10:14:21;4.53;;;2.00;;
11777;SDS011;5946;51.770;8.548;2023-04-02T10:17:31;4.47;;;1.87;;
11777;SDS011;5946;51.770;8.548;2023-04-02T10:19:42;3.33;;;1.90;;
11777;SDS011;5946;51.770;8.548;2023-04-02T10:22:11;3.90;;;1.83;;
11777;SDS011;5946;51.770;8.548;2023-04-02T10:24:38;3.07;;;1.60;;
11777;SDS011;5946;51.770;8.548;2023-04-02T10:27:13;2.73;;;1.80;;
11777;SDS011;5946;51.770;8.548;2023-04-02T10:35:02;3.70;;;1.70;;
11777;SDS011;5946;51.770;8.548;2023-04-02T10:47:59;4.70;;;2.90;;
11777;SDS011;5946;51.770;8.548;2023-04-02T10:50:38;4.23;;;2.00;;
11777;SDS011;5946;51.770;8.548;2023-04-02T10:53:10;6.07;;;2.07;;
11777;SDS011;5946;51.770;8.548;2023-04-02T10:55:39;2.93;;;2.00;;
11777;SDS011;5946;51.770;8.548;2023-04-02T10:58:12;3.20;;;1.87;;
11777;SDS011;5946;51.770;8.548;2023-04-02T11:00:43;8.03;;;3.30;;
11777;SDS011;5946;51.770;8.548;2023-04-02T11:03:17;5.07;;;2.07;;
11777;SDS011;5946;51.770;8.548;2023-04-02T11:05:50;3.70;;;1.80;;
11777;SDS011;5946;51.770;8.548;2023-04-02T11:10:54;3.50;;;2.10;;
11777;SDS011;5946;51.770;8.548;2023-04-02T11:13:27;3.17;;;1.90;;
11777;SDS011;5946;51.770;8.548;2023-04-02T11:15:55;4.47;;;2.87;;
11777;SDS011;5946;51.770;8.548;2023-04-02T11:18:22;2.17;;;1.97;;
11777;SDS011;5946;51.770;8.548;2023-04-02T11:20:54;3.70;;;2.20;;
11777;SDS011;5946;51.770;8.548;2023-04-02T11:23:21;4.90;;;3.20;;
11777;SDS011;5946;51.770;8.548;2023-04-02T11:25:47;5.27;;;2.40;;
11777;SDS011;5946;51.770;8.548;2023-04-02T11:28:23;4.27;;;2.23;;
11777;SDS011;5946;51.770;8.548;2023-04-02T11:30:51;4.20;;;3.17;;
11777;SDS011;5946;51.770;8.548;2023-04-02T11:33:31;26.23;;;16.40;;
11777;SDS011;5946;51.770;8.548;2023-04-02T11:36:03;6.87;;;4.20;;
11777;SDS011;5946;51.770;8.548;2023-04-02T11:40:57;29.10;;;21.20;;
11777;SDS011;5946;51.770;8.548;2023-04-02T11:45:59;9.13;;;6.30;;
11777;SDS011;5946;51.770;8.548;2023-04-02T11:48:26;11.73;;;7.10;;
11777;SDS011;5946;51.770;8.548;2023-04-02T11:50:52;10.17;;;6.93;;
11777;SDS011;5946;51.770;8.548;2023-04-02T11:53:20;17.93;;;12.10;;
11777;SDS011;5946;51.770;8.548;2023-04-02T12:03:40;5.87;;;3.33;;
11777;SDS011;5946;51.770;8.548;2023-04-02T12:11:32;5.20;;;3.10;;
11777;SDS011;5946;51.770;8.548;2023-04-02T12:13:59;44.33;;;22.53;;
11777;SDS011;5946;51.770;8.548;2023-04-02T12:16:26;19.40;;;10.80;;
11777;SDS011;5946;51.770;8.548;2023-04-02T12:18:56;9.37;;;4.93;;
11777;SDS011;5946;51.770;8.548;2023-04-02T12:21:24;6.47;;;3.77;;
11777;SDS011;5946;51.770;8.548;2023-04-02T12:23:51;4.40;;;2.80;;
11777;SDS011;5946;51.770;8.548;2023-04-02T12:28:54;6.83;;;2.10;;
11777;SDS011;5946;51.770;8.548;2023-04-02T12:31:20;3.53;;;2.30;;
11777;SDS011;5946;51.770;8.548;2023-04-02T12:33:50;4.33;;;1.80;;
11777;SDS011;5946;51.770;8.548;2023-04-02T12:36:18;4.27;;;2.30;;
11777;SDS011;5946;51.770;8.548;2023-04-02T12:38:46;28.10;;;14.00;;
11777;SDS011;5946;51.770;8.548;2023-04-02T12:43:55;17.07;;;8.17;;
11777;SDS011;5946;51.770;8.548;2023-04-02T12:46:22;13.30;;;10.07;;
11777;SDS011;5946;51.770;8.548;2023-04-02T12:48:50;3.77;;;2.57;;
11777;SDS011;5946;51.770;8.548;2023-04-02T12:51:16;4.27;;;2.87;;
11777;SDS011;5946;51.770;8.548;2023-04-02T12:53:42;4.80;;;2.90;;
11777;SDS011;5946;51.770;8.548;2023-04-02T12:56:17;7.07;;;2.53;;
11777;SDS011;5946;51.770;8.548;2023-04-02T12:58:51;4.93;;;2.67;;
11777;SDS011;5946;51.770;8.548;2023-04-02T13:01:21;4.00;;;2.30;;
11777;SDS011;5946;51.770;8.548;2023-04-02T13:06:24;3.67;;;2.40;;
11777;SDS011;5946;51.770;8.548;2023-04-02T13:08:51;2.97;;;2.07;;
11777;SDS011;5946;51.770;8.548;2023-04-02T13:11:17;3.93;;;2.07;;
11777;SDS011;5946;51.770;8.548;2023-04-02T13:13:44;5.43;;;1.90;;
11777;SDS011;5946;51.770;8.548;2023-04-02T13:18:40;3.57;;;1.70;;
11777;SDS011;5946;51.770;8.548;2023-04-02T13:23:39;3.57;;;1.90;;
11777;SDS011;5946;51.770;8.548;2023-04-02T13:26:18;4.80;;;1.80;;
11777;SDS011;5946;51.770;8.548;2023-04-02T13:29:02;3.80;;;1.87;;
11777;SDS011;5946;51.770;8.548;2023-04-02T13:31:29;4.03;;;1.90;;
11777;SDS011;5946;51.770;8.548;2023-04-02T13:33:56;3.50;;;2.20;;
11777;SDS011;5946;51.770;8.548;2023-04-02T13:36:22;4.60;;;1.60;;
11777;SDS011;5946;51.770;8.548;2023-04-02T13:38:48;5.63;;;2.10;;
11777;SDS011;5946;51.770;8.548;2023-04-02T13:41:18;4.60;;;1.83;;
11777;SDS011;5946;51.770;8.548;2023-04-02T13:43:46;2.87;;;1.63;;
11777;SDS011;5946;51.770;8.548;2023-04-02T13:46:16;3.13;;;1.97;;
11777;SDS011;5946;51.770;8.548;2023-04-02T13:48:44;4.10;;;1.83;;
11777;SDS011;5946;51.770;8.548;2023-04-02T13:51:13;3.43;;;2.00;;
11777;SDS011;5946;51.770;8.548;2023-04-02T13:53:40;3.47;;;1.70;;
11777;SDS011;5946;51.770;8.548;2023-04-02T13:56:06;1.67;;;1.53;;
11777;SDS011;5946;51.770;8.548;2023-04-02T13:58:32;4.77;;;2.00;;
11777;SDS011;5946;51.770;8.548;2023-04-02T14:00:59;2.93;;;2.00;;
11777;SDS011;5946;51.770;8.548;2023-04-02T14:03:25;2.87;;;1.80;;
11777;SDS011;5946;51.770;8.548;2023-04-02T14:06:03;2.87;;;2.30;;
11777;SDS011;5946;51.770;8.548;2023-04-02T14:11:17;4.50;;;1.90;;
11777;SDS011;5946;51.770;8.548;2023-04-02T14:19:39;3.40;;;1.93;;
11777;SDS011;5946;51.770;8.548;2023-04-02T14:27:22;2.73;;;1.80;;
11777;SDS011;5946;51.770;8.548;2023-04-02T14:34:51;2.13;;;1.80;;
11777;SDS011;5946;51.770;8.548;2023-04-02T14:42:33;2.93;;;1.60;;
11777;SDS011;5946;51.770;8.548;2023-04-02T14:47:40;4.60;;;2.00;;
11777;SDS011;5946;51.770;8.548;2023-04-02T14:50:09;3.40;;;1.77;;
11777;SDS011;5946;51.770;8.548;2023-04-02T14:52:35;3.13;;;1.73;;
11777;SDS011;5946;51.770;8.548;2023-04-02T14:55:03;2.50;;;1.87;;
11777;SDS011;5946;51.770;8.548;2023-04-02T14:57:30;2.47;;;1.80;;
11777;SDS011;5946;51.770;8.548;2023-04-02T15:05:05;3.30;;;1.70;;
11777;SDS011;5946;51.770;8.548;2023-04-02T15:07:39;3.77;;;2.17;;
11777;SDS011;5946;51.770;8.548;2023-04-02T15:10:21;2.27;;;1.57;;
11777;SDS011;5946;51.770;8.548;2023-04-02T15:12:49;4.73;;;1.57;;
11777;SDS011;5946;51.770;8.548;2023-04-02T15:15:27;2.63;;;1.70;;
11777;SDS011;5946;51.770;8.548;2023-04-02T15:17:57;3.40;;;1.87;;
11777;SDS011;5946;51.770;8.548;2023-04-02T15:20:23;4.90;;;1.70;;
11777;SDS011;5946;51.770;8.548;2023-04-02T15:22:55;2.97;;;1.50;;
11777;SDS011;5946;51.770;8.548;2023-04-02T15:25:35;2.93;;;1.50;;
11777;SDS011;5946;51.770;8.548;2023-04-02T15:30:36;2.77;;;1.47;;
11777;SDS011;5946;51.770;8.548;2023-04-02T15:35:48;3.30;;;1.60;;
11777;SDS011;5946;51.770;8.548;2023-04-02T15:38:27;3.07;;;1.70;;
11777;SDS011;5946;51.770;8.548;2023-04-02T15:43:38;2.13;;;1.40;;
11777;SDS011;5946;51.770;8.548;2023-04-02T15:46:17;2.47;;;1.50;;
11777;SDS011;5946;51.770;8.548;2023-04-02T15:48:50;2.13;;;1.50;;
11777;SDS011;5946;51.770;8.548;2023-04-02T15:56:33;3.90;;;1.30;;
11777;SDS011;5946;51.770;8.548;2023-04-02T16:02:12;2.87;;;1.93;;
11777;SDS011;5946;51.770;8.548;2023-04-02T16:04:52;2.73;;;1.60;;
11777;SDS011;5946;51.770;8.548;2023-04-02T16:12:44;4.47;;;1.30;;
11777;SDS011;5946;51.770;8.548;2023-04-02T16:17:46;2.23;;;1.60;;
11777;SDS011;5946;51.770;8.548;2023-04-02T16:20:22;2.97;;;1.50;;
11777;SDS011;5946;51.770;8.548;2023-04-02T16:22:58;3.70;;;1.80;;
11777;SDS011;5946;51.770;8.548;2023-04-02T16:25:24;3.47;;;1.93;;
11777;SDS011;5946;51.770;8.548;2023-04-02T16:28:01;4.23;;;1.63;;
11777;SDS011;5946;51.770;8.548;2023-04-02T16:30:40;4.17;;;2.27;;
11777;SDS011;5946;51.770;8.548;2023-04-02T16:33:13;2.17;;;1.67;;
11777;SDS011;5946;51.770;8.548;2023-04-02T16:36:00;2.73;;;1.43;;
11777;SDS011;5946;51.770;8.548;2023-04-02T16:38:32;1.50;;;1.23;;
11777;SDS011;5946;51.770;8.548;2023-04-02T16:43:30;2.73;;;1.30;;
11777;SDS011;5946;51.770;8.548;2023-04-02T16:48:44;2.13;;;1.30;;
11777;SDS011;5946;51.770;8.548;2023-04-02T16:56:17;3.47;;;1.40;;
11777;SDS011;5946;51.770;8.548;2023-04-02T17:01:25;2.50;;;2.00;;
11777;SDS011;5946;51.770;8.548;2023-04-02T17:06:34;2.30;;;1.60;;
11777;SDS011;5946;51.770;8.548;2023-04-02T17:09:15;2.20;;;1.53;;
11777;SDS011;5946;51.770;8.548;2023-04-02T17:11:52;2.47;;;1.50;;
11777;SDS011;5946;51.770;8.548;2023-04-02T17:14:25;2.90;;;1.37;;
11777;SDS011;5946;51.770;8.548;2023-04-02T17:16:54;3.13;;;1.93;;
11777;SDS011;5946;51.770;8.548;2023-04-02T17:19:22;5.80;;;1.53;;
11777;SDS011;5946;51.770;8.548;2023-04-02T17:21:49;3.63;;;1.83;;
11777;SDS011;5946;51.770;8.548;2023-04-02T17:29:38;2.13;;;1.47;;
11777;SDS011;5946;51.770;8.548;2023-04-02T17:32:05;2.83;;;1.87;;
11777;SDS011;5946;51.770;8.548;2023-04-02T17:34:36;4.13;;;2.20;;
11777;SDS011;5946;51.770;8.548;2023-04-02T17:39:47;4.70;;;2.30;;
11777;SDS011;5946;51.770;8.548;2023-04-02T17:42:20;5.37;;;2.20;;
11777;SDS011;5946;51.770;8.548;2023-04-02T17:44:52;4.23;;;1.80;;
11777;SDS011;5946;51.770;8.548;2023-04-02T17:47:20;4.30;;;1.93;;
11777;SDS011;5946;51.770;8.548;2023-04-02T18:00:34;2.73;;;1.50;;
11777;SDS011;5946;51.770;8.548;2023-04-02T18:03:17;3.23;;;1.60;;
11777;SDS011;5946;51.770;8.548;2023-04-02T18:05:49;4.60;;;2.07;;
11777;SDS011;5946;51.770;8.548;2023-04-02T18:08:37;4.07;;;2.13;;
11777;SDS011;5946;51.770;8.548;2023-04-02T18:11:23;4.00;;;1.90;;
11777;SDS011;5946;51.770;8.548;2023-04-02T18:29:31;4.20;;;2.10;;
11777;SDS011;5946;51.770;8.548;2023-04-02T18:34:50;4.67;;;2.40;;
11777;SDS011;5946;51.770;8.548;2023-04-02T18:37:42;3.93;;;2.30;;
11777;SDS011;5946;51.770;8.548;2023-04-02T18:40:31;2.97;;;1.73;;
11777;SDS011;5946;51.770;8.548;2023-04-02T18:48:43;4.57;;;1.77;;
11777;SDS011;5946;51.770;8.548;2023-04-02T18:50:50;3.33;;;1.87;;
11777;SDS011;5946;51.770;8.548;2023-04-02T18:53:18;2.43;;;1.70;;
11777;SDS011;5946;51.770;8.548;2023-04-02T18:55:50;3.63;;;1.60;;
11777;SDS011;5946;51.770;8.548;2023-04-02T18:58:24;4.03;;;1.77;;
11777;SDS011;5946;51.770;8.548;2023-04-02T19:00:51;4.97;;;1.77;;
11777;SDS011;5946;51.770;8.548;2023-04-02T19:03:30;3.10;;;1.70;;
11777;SDS011;5946;51.770;8.548;2023-04-02T19:06:00;4.03;;;1.90;;
11777;SDS011;5946;51.770;8.548;2023-04-02T19:11:23;4.93;;;2.03;;
11777;SDS011;5946;51.770;8.548;2023-04-02T19:13:59;5.13;;;1.80;;
11777;SDS011;5946;51.770;8.548;2023-04-02T19:18:54;3.90;;;2.13;;